sensor_id;sensor_type;location;lat;lon;timestamp;P1;P2;P0
45440;PMS5003;31189;38.790;-77.084;2022-12-18T00:00:05;26;21;
45440;PMS5003;31189;38.790;-77.084;2022-12-18T00:02:34;25;23;
45440;PMS5003;31189;38.790;-77.084;2022-12-18T00:05:02;29;24;
45440;PMS5003;31189;38.790;-77.084;2022-12-18T00:07:30;43;31;
45440;PMS5003;31189;38.790;-77.084;2022-12-18T00:09:58;30;28;
45440;PMS5003;31189;38.790;-77.084;2022-12-18T00:12:25;38;31;
45440;PMS5003;31189;38.790;-77.084;2022-12-18T00:14:53;37;33;
45440;PMS5003;31189;38.790;-77.084;2022-12-18T00:17:21;38;32;
45440;PMS5003;31189;38.790;-77.084;2022-12-18T00:19:49;42;31;
45440;PMS5003;31189;38.790;-77.084;2022-12-18T00:22:17;37;24;
45440;PMS5003;31189;38.790;-77.084;2022-12-18T00:24:45;26;23;
45440;PMS5003;31189;38.790;-77.084;2022-12-18T00:27:14;25;23;
45440;PMS5003;31189;38.790;-77.084;2022-12-18T00:29:42;24;24;
45440;PMS5003;31189;38.790;-77.084;2022-12-18T00:32:10;29;27;
45440;PMS5003;31189;38.790;-77.084;2022-12-18T00:34:38;36;27;
45440;PMS5003;31189;38.790;-77.084;2022-12-18T00:37:05;27;25;
45440;PMS5003;31189;38.790;-77.084;2022-12-18T00:39:33;23;18;
45440;PMS5003;31189;38.790;-77.084;2022-12-18T00:42:02;16;16;
45440;PMS5003;31189;38.790;-77.084;2022-12-18T00:44:30;17;13;
45440;PMS5003;31189;38.790;-77.084;2022-12-18T00:46:58;19;16;
45440;PMS5003;31189;38.790;-77.084;2022-12-18T00:49:26;15;12;
45440;PMS5003;31189;38.790;-77.084;2022-12-18T00:51:54;14;14;
45440;PMS5003;31189;38.790;-77.084;2022-12-18T00:54:22;16;12;
45440;PMS5003;31189;38.790;-77.084;2022-12-18T00:56:50;16;15;
45440;PMS5003;31189;38.790;-77.084;2022-12-18T00:59:18;19;11;
45440;PMS5003;31189;38.790;-77.084;2022-12-18T01:01:46;12;9;
45440;PMS5003;31189;38.790;-77.084;2022-12-18T01:04:15;9;9;
45440;PMS5003;31189;38.790;-77.084;2022-12-18T01:06:43;10;8;
45440;PMS5003;31189;38.790;-77.084;2022-12-18T01:09:11;8;8;
45440;PMS5003;31189;38.790;-77.084;2022-12-18T01:11:39;8;6;
45440;PMS5003;31189;38.790;-77.084;2022-12-18T01:14:08;11;10;
45440;PMS5003;31189;38.790;-77.084;2022-12-18T01:16:36;11;8;
45440;PMS5003;31189;38.790;-77.084;2022-12-18T01:19:03;6;6;
45440;PMS5003;31189;38.790;-77.084;2022-12-18T01:21:31;10;8;
45440;PMS5003;31189;38.790;-77.084;2022-12-18T01:24:00;7;6;
45440;PMS5003;31189;38.790;-77.084;2022-12-18T01:26:28;7;6;
45440;PMS5003;31189;38.790;-77.084;2022-12-18T01:28:56;8;7;
45440;PMS5003;31189;38.790;-77.084;2022-12-18T01:31:25;10;7;
45440;PMS5003;31189;38.790;-77.084;2022-12-18T01:33:54;10;7;
45440;PMS5003;31189;38.790;-77.084;2022-12-18T01:36:24;8;5;
45440;PMS5003;31189;38.790;-77.084;2022-12-18T01:38:54;6;6;
45440;PMS5003;31189;38.790;-77.084;2022-12-18T01:41:23;8;7;
45440;PMS5003;31189;38.790;-77.084;2022-12-18T01:43:52;8;6;
45440;PMS5003;31189;38.790;-77.084;2022-12-18T01:46:21;7;6;
45440;PMS5003;31189;38.790;-77.084;2022-12-18T01:48:51;7;7;
45440;PMS5003;31189;38.790;-77.084;2022-12-18T01:51:23;9;7;
45440;PMS5003;31189;38.790;-77.084;2022-12-18T01:53:52;7;6;
45440;PMS5003;31189;38.790;-77.084;2022-12-18T01:56:20;7;5;
45440;PMS5003;31189;38.790;-77.084;2022-12-18T01:58:51;8;7;
45440;PMS5003;31189;38.790;-77.084;2022-12-18T02:01:25;7;6;
45440;PMS5003;31189;38.790;-77.084;2022-12-18T02:03:55;8;8;
45440;PMS5003;31189;38.790;-77.084;2022-12-18T02:06:42;12;8;
45440;PMS5003;31189;38.790;-77.084;2022-12-18T02:09:11;10;9;
45440;PMS5003;31189;38.790;-77.084;2022-12-18T02:11:42;12;11;
45440;PMS5003;31189;38.790;-77.084;2022-12-18T02:14:21;13;9;
45440;PMS5003;31189;38.790;-77.084;2022-12-18T02:16:56;10;8;
45440;PMS5003;31189;38.790;-77.084;2022-12-18T02:19:44;11;9;
45440;PMS5003;31189;38.790;-77.084;2022-12-18T02:22:26;9;9;
45440;PMS5003;31189;38.790;-77.084;2022-12-18T02:25:11;10;9;
45440;PMS5003;31189;38.790;-77.084;2022-12-18T02:27:48;13;12;
45440;PMS5003;31189;38.790;-77.084;2022-12-18T02:30:18;13;10;
45440;PMS5003;31189;38.790;-77.084;2022-12-18T02:32:47;13;11;
45440;PMS5003;31189;38.790;-77.084;2022-12-18T02:35:20;17;14;
45440;PMS5003;31189;38.790;-77.084;2022-12-18T02:37:54;12;12;
45440;PMS5003;31189;38.790;-77.084;2022-12-18T02:40:24;13;12;
45440;PMS5003;31189;38.790;-77.084;2022-12-18T02:42:55;14;14;
45440;PMS5003;31189;38.790;-77.084;2022-12-18T02:45:29;14;10;
45440;PMS5003;31189;38.790;-77.084;2022-12-18T02:47:57;14;14;
45440;PMS5003;31189;38.790;-77.084;2022-12-18T02:50:26;15;13;
45440;PMS5003;31189;38.790;-77.084;2022-12-18T02:53:04;16;15;
45440;PMS5003;31189;38.790;-77.084;2022-12-18T02:55:43;15;14;
45440;PMS5003;31189;38.790;-77.084;2022-12-18T02:58:20;15;14;
45440;PMS5003;31189;38.790;-77.084;2022-12-18T03:00:56;18;18;
45440;PMS5003;31189;38.790;-77.084;2022-12-18T03:03:29;24;20;
45440;PMS5003;31189;38.790;-77.084;2022-12-18T03:06:04;16;14;
45440;PMS5003;31189;38.790;-77.084;2022-12-18T03:08:36;21;18;
45440;PMS5003;31189;38.790;-77.084;2022-12-18T03:11:08;18;16;
45440;PMS5003;31189;38.790;-77.084;2022-12-18T03:13:39;24;18;
45440;PMS5003;31189;38.790;-77.084;2022-12-18T03:16:11;22;22;
45440;PMS5003;31189;38.790;-77.084;2022-12-18T03:18:44;23;18;
45440;PMS5003;31189;38.790;-77.084;2022-12-18T03:21:14;21;17;
45440;PMS5003;31189;38.790;-77.084;2022-12-18T03:23:47;16;16;
45440;PMS5003;31189;38.790;-77.084;2022-12-18T03:26:19;16;15;
45440;PMS5003;31189;38.790;-77.084;2022-12-18T03:28:50;23;16;
45440;PMS5003;31189;38.790;-77.084;2022-12-18T03:31:23;30;19;
45440;PMS5003;31189;38.790;-77.084;2022-12-18T03:33:54;15;15;
45440;PMS5003;31189;38.790;-77.084;2022-12-18T03:36:24;17;17;
45440;PMS5003;31189;38.790;-77.084;2022-12-18T03:38:53;20;18;
45440;PMS5003;31189;38.790;-77.084;2022-12-18T03:41:23;24;17;
45440;PMS5003;31189;38.790;-77.084;2022-12-18T03:43:59;21;16;
45440;PMS5003;31189;38.790;-77.084;2022-12-18T03:46:38;22;19;
45440;PMS5003;31189;38.790;-77.084;2022-12-18T03:49:12;31;19;
45440;PMS5003;31189;38.790;-77.084;2022-12-18T03:51:47;24;18;
45440;PMS5003;31189;38.790;-77.084;2022-12-18T03:54:19;16;14;
45440;PMS5003;31189;38.790;-77.084;2022-12-18T03:56:51;14;14;
45440;PMS5003;31189;38.790;-77.084;2022-12-18T03:59:24;15;13;
45440;PMS5003;31189;38.790;-77.084;2022-12-18T04:01:54;14;13;
45440;PMS5003;31189;38.790;-77.084;2022-12-18T04:04:24;26;17;
45440;PMS5003;31189;38.790;-77.084;2022-12-18T04:06:54;16;14;
45440;PMS5003;31189;38.790;-77.084;2022-12-18T04:09:23;20;15;
45440;PMS5003;31189;38.790;-77.084;2022-12-18T04:11:51;17;13;
45440;PMS5003;31189;38.790;-77.084;2022-12-18T04:14:19;21;20;
45440;PMS5003;31189;38.790;-77.084;2022-12-18T04:16:47;16;14;
45440;PMS5003;31189;38.790;-77.084;2022-12-18T04:19:15;20;16;
45440;PMS5003;31189;38.790;-77.084;2022-12-18T04:21:42;32;18;
45440;PMS5003;31189;38.790;-77.084;2022-12-18T04:24:10;17;15;
45440;PMS5003;31189;38.790;-77.084;2022-12-18T04:26:38;17;16;
45440;PMS5003;31189;38.790;-77.084;2022-12-18T04:29:05;17;16;
45440;PMS5003;31189;38.790;-77.084;2022-12-18T04:31:33;22;16;
45440;PMS5003;31189;38.790;-77.084;2022-12-18T04:34:01;15;14;
45440;PMS5003;31189;38.790;-77.084;2022-12-18T04:36:30;20;20;
45440;PMS5003;31189;38.790;-77.084;2022-12-18T04:38:59;15;15;
45440;PMS5003;31189;38.790;-77.084;2022-12-18T04:41:27;27;20;
45440;PMS5003;31189;38.790;-77.084;2022-12-18T04:43:55;27;22;
45440;PMS5003;31189;38.790;-77.084;2022-12-18T04:46:22;19;16;
45440;PMS5003;31189;38.790;-77.084;2022-12-18T04:48:50;19;18;
45440;PMS5003;31189;38.790;-77.084;2022-12-18T04:51:19;22;18;
45440;PMS5003;31189;38.790;-77.084;2022-12-18T04:53:47;20;20;
45440;PMS5003;31189;38.790;-77.084;2022-12-18T04:56:15;28;21;
45440;PMS5003;31189;38.790;-77.084;2022-12-18T04:58:44;20;17;
45440;PMS5003;31189;38.790;-77.084;2022-12-18T05:01:12;26;19;
45440;PMS5003;31189;38.790;-77.084;2022-12-18T05:03:41;23;23;
45440;PMS5003;31189;38.790;-77.084;2022-12-18T05:06:10;33;24;
45440;PMS5003;31189;38.790;-77.084;2022-12-18T05:08:38;22;18;
45440;PMS5003;31189;38.790;-77.084;2022-12-18T05:11:06;22;20;
45440;PMS5003;31189;38.790;-77.084;2022-12-18T05:13:36;20;17;
45440;PMS5003;31189;38.790;-77.084;2022-12-18T05:16:04;19;17;
45440;PMS5003;31189;38.790;-77.084;2022-12-18T05:18:33;16;16;
45440;PMS5003;31189;38.790;-77.084;2022-12-18T05:21:02;27;18;
45440;PMS5003;31189;38.790;-77.084;2022-12-18T05:23:31;15;15;
45440;PMS5003;31189;38.790;-77.084;2022-12-18T05:26:00;23;17;
45440;PMS5003;31189;38.790;-77.084;2022-12-18T05:28:30;18;18;
45440;PMS5003;31189;38.790;-77.084;2022-12-18T05:31:01;21;18;
45440;PMS5003;31189;38.790;-77.084;2022-12-18T05:33:31;20;18;
45440;PMS5003;31189;38.790;-77.084;2022-12-18T05:36:00;23;20;
45440;PMS5003;31189;38.790;-77.084;2022-12-18T05:38:32;19;17;
45440;PMS5003;31189;38.790;-77.084;2022-12-18T05:41:01;16;15;
45440;PMS5003;31189;38.790;-77.084;2022-12-18T05:43:29;35;15;
45440;PMS5003;31189;38.790;-77.084;2022-12-18T05:45:58;21;17;
45440;PMS5003;31189;38.790;-77.084;2022-12-18T05:48:31;22;14;
45440;PMS5003;31189;38.790;-77.084;2022-12-18T05:51:04;20;18;
45440;PMS5003;31189;38.790;-77.084;2022-12-18T05:53:38;17;16;
45440;PMS5003;31189;38.790;-77.084;2022-12-18T05:56:13;19;16;
45440;PMS5003;31189;38.790;-77.084;2022-12-18T05:58:41;18;14;
45440;PMS5003;31189;38.790;-77.084;2022-12-18T06:01:11;21;17;
45440;PMS5003;31189;38.790;-77.084;2022-12-18T06:03:40;19;15;
45440;PMS5003;31189;38.790;-77.084;2022-12-18T06:06:15;18;15;
45440;PMS5003;31189;38.790;-77.084;2022-12-18T06:08:45;16;16;
45440;PMS5003;31189;38.790;-77.084;2022-12-18T06:11:15;27;17;
45440;PMS5003;31189;38.790;-77.084;2022-12-18T06:13:45;18;14;
45440;PMS5003;31189;38.790;-77.084;2022-12-18T06:16:13;15;15;
45440;PMS5003;31189;38.790;-77.084;2022-12-18T06:18:41;18;14;
45440;PMS5003;31189;38.790;-77.084;2022-12-18T06:21:09;14;14;
45440;PMS5003;31189;38.790;-77.084;2022-12-18T06:23:37;23;16;
45440;PMS5003;31189;38.790;-77.084;2022-12-18T06:26:06;20;15;
45440;PMS5003;31189;38.790;-77.084;2022-12-18T06:28:35;16;15;
45440;PMS5003;31189;38.790;-77.084;2022-12-18T06:31:04;14;13;
45440;PMS5003;31189;38.790;-77.084;2022-12-18T06:33:33;16;13;
45440;PMS5003;31189;38.790;-77.084;2022-12-18T06:36:01;18;15;
45440;PMS5003;31189;38.790;-77.084;2022-12-18T06:38:38;13;13;
45440;PMS5003;31189;38.790;-77.084;2022-12-18T06:41:08;16;14;
45440;PMS5003;31189;38.790;-77.084;2022-12-18T06:43:36;16;15;
45440;PMS5003;31189;38.790;-77.084;2022-12-18T06:46:05;19;14;
45440;PMS5003;31189;38.790;-77.084;2022-12-18T06:48:33;15;13;
45440;PMS5003;31189;38.790;-77.084;2022-12-18T06:51:01;17;14;
45440;PMS5003;31189;38.790;-77.084;2022-12-18T06:53:31;17;16;
45440;PMS5003;31189;38.790;-77.084;2022-12-18T06:56:00;14;14;
45440;PMS5003;31189;38.790;-77.084;2022-12-18T06:58:29;14;12;
45440;PMS5003;31189;38.790;-77.084;2022-12-18T07:00:59;25;14;
45440;PMS5003;31189;38.790;-77.084;2022-12-18T07:03:27;25;14;
45440;PMS5003;31189;38.790;-77.084;2022-12-18T07:05:55;13;13;
45440;PMS5003;31189;38.790;-77.084;2022-12-18T07:08:23;17;13;
45440;PMS5003;31189;38.790;-77.084;2022-12-18T07:10:51;14;14;
45440;PMS5003;31189;38.790;-77.084;2022-12-18T07:13:20;14;14;
45440;PMS5003;31189;38.790;-77.084;2022-12-18T07:15:47;16;12;
45440;PMS5003;31189;38.790;-77.084;2022-12-18T07:18:15;14;13;
45440;PMS5003;31189;38.790;-77.084;2022-12-18T07:20:42;16;12;
45440;PMS5003;31189;38.790;-77.084;2022-12-18T07:23:10;19;16;
45440;PMS5003;31189;38.790;-77.084;2022-12-18T07:25:38;18;15;
45440;PMS5003;31189;38.790;-77.084;2022-12-18T07:28:05;15;13;
45440;PMS5003;31189;38.790;-77.084;2022-12-18T07:30:33;17;13;
45440;PMS5003;31189;38.790;-77.084;2022-12-18T07:33:04;18;15;
45440;PMS5003;31189;38.790;-77.084;2022-12-18T07:35:33;18;14;
45440;PMS5003;31189;38.790;-77.084;2022-12-18T07:38:01;27;14;
45440;PMS5003;31189;38.790;-77.084;2022-12-18T07:40:30;16;15;
45440;PMS5003;31189;38.790;-77.084;2022-12-18T07:42:57;16;14;
45440;PMS5003;31189;38.790;-77.084;2022-12-18T07:45:26;14;11;
45440;PMS5003;31189;38.790;-77.084;2022-12-18T07:47:54;14;14;
45440;PMS5003;31189;38.790;-77.084;2022-12-18T07:50:22;14;10;
45440;PMS5003;31189;38.790;-77.084;2022-12-18T07:52:50;11;11;
45440;PMS5003;31189;38.790;-77.084;2022-12-18T07:55:18;14;13;
45440;PMS5003;31189;38.790;-77.084;2022-12-18T07:57:46;11;11;
45440;PMS5003;31189;38.790;-77.084;2022-12-18T08:00:14;15;13;
45440;PMS5003;31189;38.790;-77.084;2022-12-18T08:02:42;15;15;
45440;PMS5003;31189;38.790;-77.084;2022-12-18T08:05:10;18;16;
45440;PMS5003;31189;38.790;-77.084;2022-12-18T08:07:37;12;11;
45440;PMS5003;31189;38.790;-77.084;2022-12-18T08:10:06;16;12;
45440;PMS5003;31189;38.790;-77.084;2022-12-18T08:12:35;17;15;
45440;PMS5003;31189;38.790;-77.084;2022-12-18T08:15:03;16;14;
45440;PMS5003;31189;38.790;-77.084;2022-12-18T08:17:32;22;16;
45440;PMS5003;31189;38.790;-77.084;2022-12-18T08:20:00;24;13;
45440;PMS5003;31189;38.790;-77.084;2022-12-18T08:22:29;15;14;
45440;PMS5003;31189;38.790;-77.084;2022-12-18T08:24:57;13;13;
45440;PMS5003;31189;38.790;-77.084;2022-12-18T08:27:24;18;13;
45440;PMS5003;31189;38.790;-77.084;2022-12-18T08:29:52;16;13;
45440;PMS5003;31189;38.790;-77.084;2022-12-18T08:32:19;19;13;
45440;PMS5003;31189;38.790;-77.084;2022-12-18T08:34:47;14;12;
45440;PMS5003;31189;38.790;-77.084;2022-12-18T08:37:15;26;15;
45440;PMS5003;31189;38.790;-77.084;2022-12-18T08:39:44;13;12;
45440;PMS5003;31189;38.790;-77.084;2022-12-18T08:42:11;15;14;
45440;PMS5003;31189;38.790;-77.084;2022-12-18T08:44:39;13;12;
45440;PMS5003;31189;38.790;-77.084;2022-12-18T08:47:06;17;14;
45440;PMS5003;31189;38.790;-77.084;2022-12-18T08:49:35;15;15;
45440;PMS5003;31189;38.790;-77.084;2022-12-18T08:52:03;18;15;
45440;PMS5003;31189;38.790;-77.084;2022-12-18T08:54:31;14;11;
45440;PMS5003;31189;38.790;-77.084;2022-12-18T08:56:58;14;13;
45440;PMS5003;31189;38.790;-77.084;2022-12-18T08:59:26;26;12;
45440;PMS5003;31189;38.790;-77.084;2022-12-18T09:01:54;17;13;
45440;PMS5003;31189;38.790;-77.084;2022-12-18T09:04:22;15;12;
45440;PMS5003;31189;38.790;-77.084;2022-12-18T09:06:50;13;13;
45440;PMS5003;31189;38.790;-77.084;2022-12-18T09:09:18;31;17;
45440;PMS5003;31189;38.790;-77.084;2022-12-18T09:11:46;9;9;
45440;PMS5003;31189;38.790;-77.084;2022-12-18T09:14:14;14;13;
45440;PMS5003;31189;38.790;-77.084;2022-12-18T09:16:41;12;12;
45440;PMS5003;31189;38.790;-77.084;2022-12-18T09:19:09;22;12;
45440;PMS5003;31189;38.790;-77.084;2022-12-18T09:21:37;15;14;
45440;PMS5003;31189;38.790;-77.084;2022-12-18T09:24:05;16;14;
45440;PMS5003;31189;38.790;-77.084;2022-12-18T09:26:38;20;14;
45440;PMS5003;31189;38.790;-77.084;2022-12-18T09:29:06;10;10;
45440;PMS5003;31189;38.790;-77.084;2022-12-18T09:31:35;16;14;
45440;PMS5003;31189;38.790;-77.084;2022-12-18T09:34:03;13;11;
45440;PMS5003;31189;38.790;-77.084;2022-12-18T09:36:31;18;14;
45440;PMS5003;31189;38.790;-77.084;2022-12-18T09:38:58;13;13;
45440;PMS5003;31189;38.790;-77.084;2022-12-18T09:41:33;13;11;
45440;PMS5003;31189;38.790;-77.084;2022-12-18T09:44:10;15;14;
45440;PMS5003;31189;38.790;-77.084;2022-12-18T09:46:45;13;13;
45440;PMS5003;31189;38.790;-77.084;2022-12-18T09:49:18;15;14;
45440;PMS5003;31189;38.790;-77.084;2022-12-18T09:51:50;18;13;
45440;PMS5003;31189;38.790;-77.084;2022-12-18T09:54:25;15;12;
45440;PMS5003;31189;38.790;-77.084;2022-12-18T09:56:59;15;14;
45440;PMS5003;31189;38.790;-77.084;2022-12-18T09:59:27;13;12;
45440;PMS5003;31189;38.790;-77.084;2022-12-18T10:02:05;13;13;
45440;PMS5003;31189;38.790;-77.084;2022-12-18T10:04:43;17;14;
45440;PMS5003;31189;38.790;-77.084;2022-12-18T10:07:21;16;12;
45440;PMS5003;31189;38.790;-77.084;2022-12-18T10:09:57;12;12;
45440;PMS5003;31189;38.790;-77.084;2022-12-18T10:12:36;15;12;
45440;PMS5003;31189;38.790;-77.084;2022-12-18T10:15:12;15;13;
45440;PMS5003;31189;38.790;-77.084;2022-12-18T10:17:51;13;11;
45440;PMS5003;31189;38.790;-77.084;2022-12-18T10:20:26;16;12;
45440;PMS5003;31189;38.790;-77.084;2022-12-18T10:23:03;14;12;
45440;PMS5003;31189;38.790;-77.084;2022-12-18T10:25:50;18;15;
45440;PMS5003;31189;38.790;-77.084;2022-12-18T10:28:24;19;11;
45440;PMS5003;31189;38.790;-77.084;2022-12-18T10:30:53;16;13;
45440;PMS5003;31189;38.790;-77.084;2022-12-18T10:33:22;13;12;
45440;PMS5003;31189;38.790;-77.084;2022-12-18T10:35:55;10;9;
45440;PMS5003;31189;38.790;-77.084;2022-12-18T10:38:24;10;9;
45440;PMS5003;31189;38.790;-77.084;2022-12-18T10:40:54;14;13;
45440;PMS5003;31189;38.790;-77.084;2022-12-18T10:43:24;14;11;
45440;PMS5003;31189;38.790;-77.084;2022-12-18T10:45:59;24;12;
45440;PMS5003;31189;38.790;-77.084;2022-12-18T10:48:31;10;10;
45440;PMS5003;31189;38.790;-77.084;2022-12-18T10:51:02;12;12;
45440;PMS5003;31189;38.790;-77.084;2022-12-18T10:53:33;12;10;
45440;PMS5003;31189;38.790;-77.084;2022-12-18T10:56:04;9;8;
45440;PMS5003;31189;38.790;-77.084;2022-12-18T10:58:33;12;11;
45440;PMS5003;31189;38.790;-77.084;2022-12-18T11:01:04;10;10;
45440;PMS5003;31189;38.790;-77.084;2022-12-18T11:03:34;13;13;
45440;PMS5003;31189;38.790;-77.084;2022-12-18T11:06:05;11;10;
45440;PMS5003;31189;38.790;-77.084;2022-12-18T11:08:35;11;8;
45440;PMS5003;31189;38.790;-77.084;2022-12-18T11:11:07;11;9;
45440;PMS5003;31189;38.790;-77.084;2022-12-18T11:13:49;12;11;
45440;PMS5003;31189;38.790;-77.084;2022-12-18T11:16:25;11;11;
45440;PMS5003;31189;38.790;-77.084;2022-12-18T11:18:54;13;10;
45440;PMS5003;31189;38.790;-77.084;2022-12-18T11:21:38;9;8;
45440;PMS5003;31189;38.790;-77.084;2022-12-18T11:24:07;10;9;
45440;PMS5003;31189;38.790;-77.084;2022-12-18T11:26:47;8;7;
45440;PMS5003;31189;38.790;-77.084;2022-12-18T11:29:17;10;9;
45440;PMS5003;31189;38.790;-77.084;2022-12-18T11:31:50;7;7;
45440;PMS5003;31189;38.790;-77.084;2022-12-18T11:34:19;10;7;
45440;PMS5003;31189;38.790;-77.084;2022-12-18T11:36:54;11;10;
45440;PMS5003;31189;38.790;-77.084;2022-12-18T11:39:26;7;6;
45440;PMS5003;31189;38.790;-77.084;2022-12-18T11:42:04;8;7;
45440;PMS5003;31189;38.790;-77.084;2022-12-18T11:44:41;10;7;
45440;PMS5003;31189;38.790;-77.084;2022-12-18T11:47:16;7;7;
45440;PMS5003;31189;38.790;-77.084;2022-12-18T11:49:49;9;7;
45440;PMS5003;31189;38.790;-77.084;2022-12-18T11:52:19;7;7;
45440;PMS5003;31189;38.790;-77.084;2022-12-18T11:54:50;8;7;
45440;PMS5003;31189;38.790;-77.084;2022-12-18T11:57:23;7;6;
45440;PMS5003;31189;38.790;-77.084;2022-12-18T12:00:02;7;7;
45440;PMS5003;31189;38.790;-77.084;2022-12-18T12:02:42;8;8;
45440;PMS5003;31189;38.790;-77.084;2022-12-18T12:05:26;5;5;
45440;PMS5003;31189;38.790;-77.084;2022-12-18T12:08:04;8;7;
45440;PMS5003;31189;38.790;-77.084;2022-12-18T12:10:39;7;7;
45440;PMS5003;31189;38.790;-77.084;2022-12-18T12:13:18;6;5;
45440;PMS5003;31189;38.790;-77.084;2022-12-18T12:16:00;8;7;
45440;PMS5003;31189;38.790;-77.084;2022-12-18T12:18:41;8;6;
45440;PMS5003;31189;38.790;-77.084;2022-12-18T12:21:18;9;9;
45440;PMS5003;31189;38.790;-77.084;2022-12-18T12:23:52;7;6;
45440;PMS5003;31189;38.790;-77.084;2022-12-18T12:26:31;10;8;
45440;PMS5003;31189;38.790;-77.084;2022-12-18T12:29:09;8;7;
45440;PMS5003;31189;38.790;-77.084;2022-12-18T12:31:54;8;7;
45440;PMS5003;31189;38.790;-77.084;2022-12-18T12:34:31;6;6;
45440;PMS5003;31189;38.790;-77.084;2022-12-18T12:37:10;8;6;
45440;PMS5003;31189;38.790;-77.084;2022-12-18T12:39:48;8;6;
45440;PMS5003;31189;38.790;-77.084;2022-12-18T12:42:20;8;6;
45440;PMS5003;31189;38.790;-77.084;2022-12-18T12:44:57;7;6;
45440;PMS5003;31189;38.790;-77.084;2022-12-18T12:47:30;8;7;
45440;PMS5003;31189;38.790;-77.084;2022-12-18T12:50:03;7;7;
45440;PMS5003;31189;38.790;-77.084;2022-12-18T12:52:39;5;5;
45440;PMS5003;31189;38.790;-77.084;2022-12-18T12:55:14;8;7;
45440;PMS5003;31189;38.790;-77.084;2022-12-18T12:57:46;7;7;
45440;PMS5003;31189;38.790;-77.084;2022-12-18T13:00:20;6;6;
45440;PMS5003;31189;38.790;-77.084;2022-12-18T13:02:50;8;7;
45440;PMS5003;31189;38.790;-77.084;2022-12-18T13:05:23;6;5;
45440;PMS5003;31189;38.790;-77.084;2022-12-18T13:07:57;9;8;
45440;PMS5003;31189;38.790;-77.084;2022-12-18T13:10:33;6;6;
45440;PMS5003;31189;38.790;-77.084;2022-12-18T13:13:04;8;8;
45440;PMS5003;31189;38.790;-77.084;2022-12-18T13:15:36;10;7;
45440;PMS5003;31189;38.790;-77.084;2022-12-18T13:18:11;6;6;
45440;PMS5003;31189;38.790;-77.084;2022-12-18T13:20:43;11;5;
45440;PMS5003;31189;38.790;-77.084;2022-12-18T13:23:19;8;8;
45440;PMS5003;31189;38.790;-77.084;2022-12-18T13:25:54;6;6;
45440;PMS5003;31189;38.790;-77.084;2022-12-18T13:28:23;11;7;
45440;PMS5003;31189;38.790;-77.084;2022-12-18T13:31:57;8;8;
45440;PMS5003;31189;38.790;-77.084;2022-12-18T13:34:27;9;7;
45440;PMS5003;31189;38.790;-77.084;2022-12-18T13:36:57;8;8;
45440;PMS5003;31189;38.790;-77.084;2022-12-18T13:40:54;9;8;
45440;PMS5003;31189;38.790;-77.084;2022-12-18T13:43:24;6;6;
45440;PMS5003;31189;38.790;-77.084;2022-12-18T13:46:02;11;8;
45440;PMS5003;31189;38.790;-77.084;2022-12-18T13:48:33;10;7;
45440;PMS5003;31189;38.790;-77.084;2022-12-18T13:51:05;5;5;
45440;PMS5003;31189;38.790;-77.084;2022-12-18T13:53:37;8;7;
45440;PMS5003;31189;38.790;-77.084;2022-12-18T13:56:14;6;6;
45440;PMS5003;31189;38.790;-77.084;2022-12-18T13:58:44;8;6;
45440;PMS5003;31189;38.790;-77.084;2022-12-18T14:01:21;7;6;
45440;PMS5003;31189;38.790;-77.084;2022-12-18T14:03:50;7;7;
45440;PMS5003;31189;38.790;-77.084;2022-12-18T14:06:35;8;6;
45440;PMS5003;31189;38.790;-77.084;2022-12-18T14:09:03;6;6;
45440;PMS5003;31189;38.790;-77.084;2022-12-18T14:11:31;7;7;
45440;PMS5003;31189;38.790;-77.084;2022-12-18T14:13:59;6;5;
45440;PMS5003;31189;38.790;-77.084;2022-12-18T14:16:29;5;5;
45440;PMS5003;31189;38.790;-77.084;2022-12-18T14:18:58;6;6;
45440;PMS5003;31189;38.790;-77.084;2022-12-18T14:21:27;6;6;
45440;PMS5003;31189;38.790;-77.084;2022-12-18T14:24:04;6;4;
45440;PMS5003;31189;38.790;-77.084;2022-12-18T14:26:38;13;7;
45440;PMS5003;31189;38.790;-77.084;2022-12-18T14:29:18;5;5;
45440;PMS5003;31189;38.790;-77.084;2022-12-18T14:32:21;4;4;
45440;PMS5003;31189;38.790;-77.084;2022-12-18T14:34:50;5;5;
45440;PMS5003;31189;38.790;-77.084;2022-12-18T14:37:20;4;4;
45440;PMS5003;31189;38.790;-77.084;2022-12-18T14:39:53;4;4;
45440;PMS5003;31189;38.790;-77.084;2022-12-18T14:42:23;6;5;
45440;PMS5003;31189;38.790;-77.084;2022-12-18T14:44:51;3;3;
45440;PMS5003;31189;38.790;-77.084;2022-12-18T14:47:45;4;4;
45440;PMS5003;31189;38.790;-77.084;2022-12-18T14:50:13;3;3;
45440;PMS5003;31189;38.790;-77.084;2022-12-18T14:52:41;5;5;
45440;PMS5003;31189;38.790;-77.084;2022-12-18T14:55:14;4;4;
45440;PMS5003;31189;38.790;-77.084;2022-12-18T14:57:42;4;4;
45440;PMS5003;31189;38.790;-77.084;2022-12-18T15:00:15;8;7;
45440;PMS5003;31189;38.790;-77.084;2022-12-18T15:02:45;4;4;
45440;PMS5003;31189;38.790;-77.084;2022-12-18T15:05:18;6;4;
45440;PMS5003;31189;38.790;-77.084;2022-12-18T15:07:48;4;4;
45440;PMS5003;31189;38.790;-77.084;2022-12-18T15:10:18;4;4;
45440;PMS5003;31189;38.790;-77.084;2022-12-18T15:12:48;6;5;
45440;PMS5003;31189;38.790;-77.084;2022-12-18T15:15:49;7;5;
45440;PMS5003;31189;38.790;-77.084;2022-12-18T15:18:18;5;5;
45440;PMS5003;31189;38.790;-77.084;2022-12-18T15:20:48;4;4;
45440;PMS5003;31189;38.790;-77.084;2022-12-18T15:23:19;5;5;
45440;PMS5003;31189;38.790;-77.084;2022-12-18T15:25:49;5;3;
45440;PMS5003;31189;38.790;-77.084;2022-12-18T15:28:25;7;5;
45440;PMS5003;31189;38.790;-77.084;2022-12-18T15:30:58;6;4;
45440;PMS5003;31189;38.790;-77.084;2022-12-18T15:33:30;4;4;
45440;PMS5003;31189;38.790;-77.084;2022-12-18T15:36:01;5;5;
45440;PMS5003;31189;38.790;-77.084;2022-12-18T15:38:31;6;5;
45440;PMS5003;31189;38.790;-77.084;2022-12-18T15:41:00;4;4;
45440;PMS5003;31189;38.790;-77.084;2022-12-18T15:43:28;6;6;
45440;PMS5003;31189;38.790;-77.084;2022-12-18T15:45:57;4;4;
45440;PMS5003;31189;38.790;-77.084;2022-12-18T15:48:25;3;3;
45440;PMS5003;31189;38.790;-77.084;2022-12-18T15:50:54;6;4;
45440;PMS5003;31189;38.790;-77.084;2022-12-18T15:53:23;4;4;
45440;PMS5003;31189;38.790;-77.084;2022-12-18T15:55:54;4;4;
45440;PMS5003;31189;38.790;-77.084;2022-12-18T15:58:21;4;4;
45440;PMS5003;31189;38.790;-77.084;2022-12-18T16:00:49;4;4;
45440;PMS5003;31189;38.790;-77.084;2022-12-18T16:03:16;4;4;
45440;PMS5003;31189;38.790;-77.084;2022-12-18T16:05:44;3;3;
45440;PMS5003;31189;38.790;-77.084;2022-12-18T16:08:12;4;4;
45440;PMS5003;31189;38.790;-77.084;2022-12-18T16:10:40;4;4;
45440;PMS5003;31189;38.790;-77.084;2022-12-18T16:13:09;5;4;
45440;PMS5003;31189;38.790;-77.084;2022-12-18T16:15:38;2;2;
45440;PMS5003;31189;38.790;-77.084;2022-12-18T16:18:05;6;5;
45440;PMS5003;31189;38.790;-77.084;2022-12-18T16:20:33;4;4;
45440;PMS5003;31189;38.790;-77.084;2022-12-18T16:23:01;4;4;